createdAt,value
2022-08-09T00:04:06.221Z,100535.16
2022-08-09T00:09:13.292Z,100527.53
2022-08-09T00:14:21.966Z,100524.19
2022-08-09T00:19:32.615Z,100513.19
2022-08-09T00:24:35.944Z,100519.94
2022-08-09T00:30:23.373Z,100520.81
2022-08-09T00:35:03.152Z,100516.59
2022-08-09T00:40:13.838Z,100519.13
2022-08-09T00:45:20.236Z,100523.38
2022-08-09T00:50:24.734Z,100526.78
2022-08-09T00:56:04.120Z,100525.09
2022-08-09T01:00:51.892Z,100534.41
2022-08-09T01:06:17.560Z,100530.19
2022-08-09T01:11:41.953Z,100531.03
2022-08-09T01:17:18.007Z,100535.28
2022-08-09T01:23:04.401Z,100530.22
2022-08-09T01:28:15.164Z,100523.44
2022-08-09T01:33:19.241Z,100520.94
2022-08-09T01:38:31.249Z,100520.09
2022-08-09T01:43:50.699Z,100521.75
2022-08-09T01:49:00.138Z,100525.19
2022-08-09T01:54:13.784Z,100532.78
2022-08-09T01:59:18.948Z,100533.63
2022-08-09T02:04:23.093Z,100530.25
2022-08-09T02:09:41.874Z,100512.50
2022-08-09T02:14:47.946Z,100522.63
2022-08-09T02:19:54.037Z,100520.09
2022-08-09T02:24:59.155Z,100522.63
2022-08-09T02:30:02.073Z,100515.03
2022-08-09T02:35:17.152Z,100511.66
2022-08-09T02:40:26.933Z,100516.69
2022-08-09T02:45:41.452Z,100521.78
2022-08-09T02:50:54.360Z,100514.13
2022-08-09T02:56:00.116Z,100516.66
2022-08-09T03:01:06.298Z,100523.41
2022-08-09T03:06:14.505Z,100515.78
2022-08-09T03:12:06.671Z,100511.53
2022-08-09T03:16:47.455Z,100504.75
2022-08-09T03:21:51.449Z,100509.78
2022-08-09T03:26:54.444Z,100507.22
2022-08-09T03:32:00.189Z,100514.78
2022-08-09T03:37:54.540Z,100504.66
2022-08-09T03:42:26.282Z,100512.28
2022-08-09T03:47:32.482Z,100515.69
2022-08-09T03:52:42.609Z,100513.22
2022-08-09T03:58:03.314Z,100524.31
2022-08-09T04:03:11.741Z,100525.16
2022-08-09T04:08:17.104Z,100537.78
2022-08-09T04:13:19.180Z,100541.84
2022-08-09T04:18:41.740Z,100546.59
2022-08-09T04:23:53.760Z,100540.25
2022-08-09T04:28:58.323Z,100533.41
2022-08-09T04:34:02.403Z,100539.19
2022-08-09T04:39:08.728Z,100542.34
2022-08-09T04:44:14.474Z,100534.34
2022-08-09T04:49:16.737Z,100549.22
2022-08-09T04:54:24.234Z,100542.88
2022-08-09T04:59:26.251Z,100542.50
2022-08-09T05:04:32.385Z,100538.69
2022-08-09T05:09:42.183Z,100537.47
2022-08-09T05:14:50.944Z,100539.75
2022-08-09T05:19:57.044Z,100543.59
2022-08-09T05:25:00.993Z,100535.69
2022-08-09T05:30:04.921Z,100539.84
2022-08-09T05:35:08.868Z,100528.78
2022-08-09T05:40:11.745Z,100538.03
2022-08-09T05:45:14.292Z,100536.88
2022-08-09T05:50:32.342Z,100539.22
2022-08-09T05:55:38.561Z,100529.84
2022-08-09T06:00:40.184Z,100529.69
2022-08-09T06:05:57.017Z,100529.84
2022-08-09T06:11:00.053Z,100520.41
2022-08-09T06:16:04.781Z,100524.88
2022-08-09T06:21:08.138Z,100520.56
2022-08-09T06:26:09.845Z,100524.06
2022-08-09T06:31:11.552Z,100518.22
2022-08-09T06:36:13.838Z,100526.63
2022-08-09T06:41:18.880Z,100524.25
2022-08-09T06:46:39.722Z,100527.56
2022-08-09T06:51:43.097Z,100537.66
2022-08-09T06:56:47.640Z,100533.44
2022-08-09T07:01:54.006Z,100535.19
2022-08-09T07:06:59.955Z,100531.59
2022-08-09T07:12:03.174Z,100543.25
2022-08-09T07:17:08.185Z,100535.91
2022-08-09T07:22:10.899Z,100535.34
2022-08-09T07:27:26.857Z,100533.34
2022-08-09T07:32:35.289Z,100533.25
2022-08-09T07:37:44.559Z,100534.75
2022-08-09T07:42:56.081Z,100536.38
2022-08-09T07:48:01.465Z,100533.38
2022-08-09T07:53:07.938Z,100538.19
2022-08-09T07:58:13.339Z,100538.78
2022-08-09T08:03:16.027Z,100539.50
2022-08-09T08:09:02.218Z,100534.44
2022-08-09T08:13:55.897Z,100536.53
2022-08-09T08:18:59.533Z,100526.88
2022-08-09T08:24:12.056Z,100524.81
2022-08-09T08:29:20.392Z,100526.94
2022-08-09T08:34:29.872Z,100529.13
2022-08-09T08:39:39.191Z,100515.84
2022-08-09T08:44:46.636Z,100530.91
2022-08-09T08:49:49.410Z,100522.06
2022-08-09T08:54:55.376Z,100516.13
2022-08-09T08:59:57.506Z,100523.22
2022-08-09T09:05:05.925Z,100520.94
2022-08-09T09:10:11.639Z,100519.59
2022-08-09T09:15:28.155Z,100516.81
2022-08-09T09:20:36.539Z,100509.63
2022-08-09T09:26:04.123Z,100522.59
2022-08-09T09:31:05.967Z,100511.47
2022-08-09T09:36:20.487Z,100508.13
2022-08-09T09:41:22.709Z,100497.00
2022-08-09T09:46:45.731Z,100504.19
2022-08-09T09:52:02.284Z,100496.59
2022-08-09T09:58:00.787Z,100493.25
2022-08-09T10:02:46.633Z,100481.59
2022-08-09T10:08:10.650Z,100480.44
2022-08-09T10:13:10.972Z,100478.22
2022-08-09T10:18:26.524Z,100472.00
2022-08-09T10:23:28.366Z,100469.13
2022-08-09T10:28:33.186Z,100460.84
2022-08-09T10:34:09.005Z,100458.16
2022-08-09T10:39:00.059Z,100463.09
2022-08-09T10:44:04.006Z,100464.31
2022-08-09T10:49:50.056Z,100460.56
2022-08-09T10:54:48.937Z,100454.31
2022-08-09T10:59:57.588Z,100456.91
2022-08-09T11:05:24.870Z,100452.81
2022-08-09T11:10:41.229Z,100448.28
2022-08-09T11:16:37.010Z,100441.59
2022-08-09T11:22:10.470Z,100425.69
2022-08-09T11:28:05.017Z,100437.19
2022-08-09T11:33:15.451Z,100434.91
2022-08-09T11:38:28.842Z,100428.47
2022-08-09T11:43:34.935Z,100423.25
2022-08-09T11:48:53.807Z,100411.88
2022-08-09T11:54:27.653Z,100403.34
2022-08-09T11:59:33.695Z,100403.84
2022-08-09T12:04:38.015Z,100395.66
2022-08-09T12:09:40.041Z,100390.94
2022-08-09T12:15:08.027Z,100390.50
2022-08-09T12:20:16.461Z,100387.28
2022-08-09T12:25:36.978Z,100389.75
2022-08-09T12:30:40.403Z,100380.69
2022-08-09T12:35:43.021Z,100370.50
2022-08-09T12:40:46.751Z,100372.03
2022-08-09T12:45:59.687Z,100376.06
2022-08-09T12:51:03.954Z,100376.44
2022-08-09T12:56:44.303Z,100377.81
2022-08-09T13:01:46.760Z,100358.66
2022-08-09T13:06:51.155Z,100347.66
2022-08-09T13:12:02.476Z,100346.63
2022-08-09T13:17:08.663Z,100357.34
2022-08-09T13:22:37.482Z,100352.00
2022-08-09T13:27:48.541Z,100355.69
2022-08-09T13:32:57.926Z,100344.59
2022-08-09T13:38:00.294Z,100350.06
2022-08-09T13:43:05.269Z,100342.75
2022-08-09T13:48:11.392Z,100362.03
2022-08-09T13:53:16.709Z,100361.00
2022-08-09T13:58:18.366Z,100339.78
2022-08-09T14:04:01.802Z,100358.59
2022-08-09T14:08:43.329Z,100363.38
2022-08-09T14:14:16.999Z,100362.53
2022-08-09T14:19:07.077Z,100361.34
2022-08-09T14:24:22.098Z,100370.16
2022-08-09T14:30:35.400Z,100364.38
2022-08-09T14:34:55.557Z,100370.06
2022-08-09T14:39:57.684Z,100370.88
2022-08-09T14:46:39.141Z,100363.25
2022-08-09T14:50:24.911Z,100377.56
2022-08-09T14:55:31.976Z,100374.16
2022-08-09T15:00:36.302Z,100370.28
2022-08-09T15:05:39.704Z,100378.06
2022-08-09T15:11:01.675Z,100372.53
2022-08-09T15:16:07.934Z,100368.09
2022-08-09T15:21:56.829Z,100372.94
2022-08-09T15:26:32.042Z,100378.22
2022-08-09T15:31:41.854Z,100365.19
2022-08-09T15:36:48.161Z,100373.34
2022-08-09T15:41:50.812Z,100373.53
2022-08-09T15:46:52.508Z,100377.72
2022-08-09T15:52:04.014Z,100376.47
2022-08-09T15:57:08.598Z,100370.44
2022-08-09T16:02:13.389Z,100378.19
2022-08-09T16:07:15.353Z,100372.13
2022-08-09T16:12:17.720Z,100376.53
2022-08-09T16:17:19.385Z,100372.38
2022-08-09T16:22:24.076Z,100371.91
2022-08-09T16:27:26.765Z,100373.38
2022-08-09T16:32:54.371Z,100367.38
2022-08-09T16:37:56.948Z,100382.22
2022-08-09T16:43:02.261Z,100385.78
2022-08-09T16:48:40.587Z,100388.81
2022-08-09T16:53:33.809Z,100380.31
2022-08-09T16:58:36.852Z,100392.13
2022-08-09T17:03:38.698Z,100396.53
2022-08-09T17:08:59.935Z,100396.50
2022-08-09T17:14:05.132Z,100395.50
2022-08-09T17:19:06.861Z,100392.13
2022-08-09T17:24:20.626Z,100402.84
2022-08-09T17:29:31.876Z,100413.69
2022-08-09T17:35:04.205Z,100408.69
2022-08-09T17:40:01.766Z,100420.66
2022-08-09T17:45:06.448Z,100430.91
2022-08-09T17:50:16.832Z,100435.13
2022-08-09T17:55:19.342Z,100437.31
2022-08-09T18:00:33.563Z,100445.63
2022-08-09T18:05:44.118Z,100452.25
2022-08-09T18:10:46.237Z,100453.56
2022-08-09T18:16:08.843Z,100461.53
2022-08-09T18:21:19.288Z,100466.50
2022-08-09T18:26:26.112Z,100471.34
2022-08-09T18:31:51.316Z,100490.88
2022-08-09T18:36:50.505Z,100480.97
2022-08-09T18:41:55.628Z,100498.69
2022-08-09T18:47:08.110Z,100516.06
2022-08-09T18:52:13.112Z,100525.81
2022-08-09T18:57:15.661Z,100535.94
2022-08-09T19:02:18.636Z,100541.53
2022-08-09T19:07:20.952Z,100539.50
2022-08-09T19:12:24.358Z,100562.00
2022-08-09T19:17:31.132Z,100559.81
2022-08-09T19:22:33.344Z,100568.00
2022-08-09T19:27:35.915Z,100573.59
2022-08-09T19:32:38.764Z,100597.06
2022-08-09T19:37:54.478Z,100591.47
2022-08-09T19:42:57.801Z,100587.47
2022-08-09T19:47:59.801Z,100596.44
2022-08-09T19:53:04.300Z,100591.72
2022-08-09T19:58:07.222Z,100604.06
2022-08-09T20:04:17.182Z,100610.50
2022-08-09T20:08:40.470Z,100609.03
2022-08-09T20:13:53.849Z,100610.19
2022-08-09T20:19:43.134Z,100613.78
2022-08-09T20:24:19.377Z,100627.72
2022-08-09T20:29:37.362Z,100619.47
2022-08-09T20:34:39.820Z,100619.84
2022-08-09T20:40:16.831Z,100619.97
2022-08-09T20:46:01.507Z,100626.97
2022-08-09T20:50:48.034Z,100616.91
2022-08-09T20:56:02.430Z,100624.75
2022-08-09T21:01:13.972Z,100627.56
2022-08-09T21:06:31.616Z,100619.19
2022-08-09T21:16:55.093Z,100625.47
2022-08-09T21:21:57.996Z,100626.53
2022-08-09T21:26:59.765Z,100621.56
2022-08-09T21:32:18.743Z,100614.94
2022-08-09T21:37:21.902Z,100620.19
2022-08-09T21:42:28.494Z,100621.16
2022-08-09T21:47:30.592Z,100619.66
2022-08-09T21:52:33.062Z,100611.28
2022-08-09T21:57:39.120Z,100611.44
2022-08-09T22:02:59.913Z,100614.19
2022-08-09T22:08:01.902Z,100606.66
2022-08-09T22:13:07.575Z,100609.41
2022-08-09T22:18:13.325Z,100619.78
2022-08-09T22:23:14.977Z,100608.88
2022-08-09T22:28:29.472Z,100610.69
2022-08-09T22:33:42.583Z,100614.19
2022-08-09T22:38:51.196Z,100613.41
2022-08-09T22:44:01.314Z,100614.38
2022-08-09T22:49:09.814Z,100610.19
2022-08-09T22:54:12.277Z,100616.16
2022-08-09T22:59:55.303Z,100623.03
2022-08-09T23:04:38.291Z,100622.38
2022-08-09T23:09:40.458Z,100625.09
2022-08-09T23:14:42.778Z,100620.16
2022-08-09T23:20:01.130Z,100627.03
2022-08-09T23:25:06.702Z,100617.72
2022-08-09T23:30:08.663Z,100616.06
2022-08-09T23:35:10.330Z,100608.50
2022-08-09T23:40:12.501Z,100611.13
2022-08-09T23:45:37.349Z,100600.16
2022-08-09T23:50:36.149Z,100616.44
2022-08-09T23:55:38.109Z,100620.81
